createdAt,value
2022-08-03T00:01:49.271Z,1.40
2022-08-03T00:04:15.859Z,1.10
2022-08-03T00:06:42.892Z,1.20
2022-08-03T00:09:10.038Z,1.20
2022-08-03T00:11:36.853Z,1.50
2022-08-03T00:14:05.041Z,1.20
2022-08-03T00:16:31.692Z,1.40
2022-08-03T00:18:58.419Z,1.40
2022-08-03T00:21:28.751Z,1.23
2022-08-03T00:23:56.240Z,1.30
2022-08-03T00:26:22.819Z,1.60
2022-08-03T00:28:49.978Z,1.15
2022-08-03T00:31:19.735Z,1.58
2022-08-03T00:34:03.699Z,1.30
2022-08-03T00:36:30.850Z,1.30
2022-08-03T00:38:57.732Z,1.13
2022-08-03T00:41:24.356Z,1.52
2022-08-03T00:43:51.243Z,1.35
2022-08-03T00:46:21.604Z,1.20
2022-08-03T00:48:49.821Z,1.38
2022-08-03T00:51:16.604Z,1.38
2022-08-03T00:53:43.430Z,1.30
2022-08-03T00:56:13.861Z,1.50
2022-08-03T00:58:40.477Z,1.40
2022-08-03T01:01:07.364Z,1.35
2022-08-03T01:03:34.562Z,1.50
2022-08-03T01:06:16.834Z,1.48
2022-08-03T01:08:49.214Z,1.80
2022-08-03T01:12:00.895Z,1.65
2022-08-03T01:14:37.392Z,1.65
2022-08-03T01:17:24.406Z,1.52
2022-08-03T01:20:02.577Z,1.63
2022-08-03T01:22:35.062Z,1.55
2022-08-03T01:25:28.914Z,1.50
2022-08-03T01:28:37.407Z,1.40
2022-08-03T01:31:10.337Z,1.63
2022-08-03T01:33:43.856Z,1.45
2022-08-03T01:36:14.720Z,1.70
2022-08-03T01:39:01.253Z,1.58
2022-08-03T01:41:37.417Z,1.60
2022-08-03T01:44:29.760Z,1.38
2022-08-03T01:46:56.968Z,1.90
2022-08-03T01:49:25.784Z,1.80
2022-08-03T01:51:58.015Z,1.90
2022-08-03T01:54:32.756Z,1.85
2022-08-03T01:56:59.752Z,1.90
2022-08-03T01:59:29.701Z,1.33
2022-08-03T02:02:16.050Z,1.80
2022-08-03T02:04:46.983Z,1.95
2022-08-03T02:07:16.293Z,1.80
2022-08-03T02:09:45.556Z,1.75
2022-08-03T02:12:15.018Z,1.85
2022-08-03T02:14:44.375Z,2.30
2022-08-03T02:17:12.723Z,2.00
2022-08-03T02:19:40.693Z,2.22
2022-08-03T02:24:36.137Z,1.92
2022-08-03T02:27:05.887Z,2.40
2022-08-03T02:29:39.368Z,2.33
2022-08-03T02:32:10.550Z,2.53
2022-08-03T02:34:39.944Z,2.30
2022-08-03T02:37:08.621Z,2.47
2022-08-03T02:39:36.741Z,2.22
2022-08-03T02:42:05.431Z,2.40
2022-08-03T02:44:35.580Z,2.40
2022-08-03T02:47:07.448Z,2.03
2022-08-03T02:49:50.143Z,2.05
2022-08-03T02:52:24.022Z,2.03
2022-08-03T02:54:54.985Z,1.92
2022-08-03T02:57:23.279Z,2.30
2022-08-03T02:59:51.676Z,2.13
2022-08-03T03:02:19.863Z,2.30
2022-08-03T03:04:58.094Z,2.40
2022-08-03T03:07:51.400Z,2.28
2022-08-03T03:10:21.728Z,1.90
2022-08-03T03:12:51.373Z,2.20
2022-08-03T03:15:18.917Z,2.33
2022-08-03T03:17:46.588Z,2.10
2022-08-03T03:20:15.282Z,2.42
2022-08-03T03:22:59.182Z,2.30
2022-08-03T03:25:25.951Z,2.33
2022-08-03T03:27:52.919Z,2.17
2022-08-03T03:30:19.554Z,2.30
2022-08-03T03:32:46.143Z,2.33
2022-08-03T03:35:14.853Z,2.45
2022-08-03T03:37:41.383Z,3.08
2022-08-03T03:40:09.150Z,2.63
2022-08-03T03:42:38.325Z,2.40
2022-08-03T03:45:06.422Z,2.38
2022-08-03T03:47:34.952Z,2.42
2022-08-03T03:50:05.931Z,2.63
2022-08-03T03:52:33.259Z,2.70
2022-08-03T03:55:01.318Z,2.35
2022-08-03T03:57:29.453Z,2.53
2022-08-03T03:59:56.245Z,2.45
2022-08-03T04:02:22.884Z,2.53
2022-08-03T04:05:08.044Z,2.65
2022-08-03T04:08:05.030Z,2.65
2022-08-03T04:10:54.487Z,2.30
2022-08-03T04:13:22.173Z,2.38
2022-08-03T04:15:50.193Z,2.50
2022-08-03T04:20:47.764Z,2.35
2022-08-03T04:23:18.025Z,2.40
2022-08-03T04:25:46.711Z,2.42
2022-08-03T04:28:30.854Z,2.70
2022-08-03T04:31:00.865Z,2.58
2022-08-03T04:33:30.840Z,2.47
2022-08-03T04:36:02.526Z,2.45
2022-08-03T04:38:32.932Z,3.00
2022-08-03T04:41:01.025Z,2.22
2022-08-03T04:43:28.722Z,2.97
2022-08-03T04:45:57.052Z,2.80
2022-08-03T04:48:24.608Z,2.40
2022-08-03T04:50:51.898Z,2.72
2022-08-03T04:53:19.620Z,2.85
2022-08-03T04:55:46.848Z,2.33
2022-08-03T04:58:13.521Z,2.40
2022-08-03T05:00:40.026Z,2.88
2022-08-03T05:03:19.530Z,3.00
2022-08-03T05:06:09.412Z,2.75
2022-08-03T05:08:46.421Z,2.85
2022-08-03T05:11:16.399Z,3.03
2022-08-03T05:13:43.578Z,2.78
2022-08-03T05:16:10.298Z,3.03
2022-08-03T05:18:36.831Z,2.90
2022-08-03T05:21:03.941Z,2.70
2022-08-03T05:23:30.966Z,3.10
2022-08-03T05:25:57.598Z,3.10
2022-08-03T05:28:24.184Z,2.90
2022-08-03T05:30:50.919Z,2.60
2022-08-03T05:33:17.425Z,3.28
2022-08-03T05:36:00.709Z,2.85
2022-08-03T05:38:34.103Z,3.05
2022-08-03T05:41:22.765Z,2.80
2022-08-03T05:43:54.649Z,2.70
2022-08-03T05:46:22.744Z,3.25
2022-08-03T05:48:49.553Z,3.10
2022-08-03T05:51:16.125Z,3.13
2022-08-03T05:53:43.327Z,2.97
2022-08-03T05:56:13.786Z,2.70
2022-08-03T05:58:47.393Z,2.92
2022-08-03T06:01:15.464Z,2.63
2022-08-03T06:03:42.034Z,3.08
2022-08-03T06:06:12.025Z,2.88
2022-08-03T06:08:39.508Z,3.10
2022-08-03T06:11:06.036Z,3.10
2022-08-03T06:13:32.902Z,2.90
2022-08-03T06:15:59.555Z,2.58
2022-08-03T06:18:26.133Z,3.33
2022-08-03T06:20:53.371Z,3.15
2022-08-03T06:23:20.001Z,3.58
2022-08-03T06:25:47.499Z,2.80
2022-08-03T06:28:42.370Z,2.65
2022-08-03T06:31:01.465Z,2.70
2022-08-03T06:34:30.651Z,2.97
2022-08-03T06:36:15.362Z,2.92
2022-08-03T06:38:42.014Z,2.90
2022-08-03T06:41:08.589Z,3.30
2022-08-03T06:43:37.757Z,2.80
2022-08-03T06:46:08.011Z,2.85
2022-08-03T06:48:34.524Z,2.90
2022-08-03T06:51:01.043Z,3.35
2022-08-03T06:53:27.601Z,2.72
2022-08-03T06:55:55.181Z,2.55
2022-08-03T07:00:48.636Z,2.58
2022-08-03T07:03:15.230Z,2.70
2022-08-03T07:05:42.909Z,2.70
2022-08-03T07:08:10.034Z,2.60
2022-08-03T07:10:37.032Z,2.90
2022-08-03T07:13:04.340Z,2.80
2022-08-03T07:15:54.141Z,2.88
2022-08-03T07:18:17.789Z,2.38
2022-08-03T07:20:55.481Z,2.33
2022-08-03T07:23:22.642Z,2.70
2022-08-03T07:25:49.224Z,2.92
2022-08-03T07:28:15.766Z,2.38
2022-08-03T07:30:42.278Z,2.80
2022-08-03T07:33:08.780Z,2.55
2022-08-03T07:35:35.397Z,2.50
2022-08-03T07:38:02.018Z,2.80
2022-08-03T07:40:30.662Z,2.38
2022-08-03T07:42:58.788Z,2.72
2022-08-03T07:45:26.571Z,2.85
2022-08-03T07:50:21.041Z,2.65
2022-08-03T07:52:47.946Z,2.97
2022-08-03T07:55:14.950Z,3.03
2022-08-03T07:57:41.523Z,3.08
2022-08-03T08:00:18.013Z,2.95
2022-08-03T08:02:45.577Z,2.53
2022-08-03T08:05:12.611Z,2.80
2022-08-03T08:07:40.177Z,2.40
2022-08-03T08:10:08.406Z,2.45
2022-08-03T08:12:35.035Z,2.47
2022-08-03T08:15:02.179Z,2.70
2022-08-03T08:17:28.737Z,2.63
2022-08-03T08:19:55.363Z,2.53
2022-08-03T08:22:28.086Z,2.53
2022-08-03T08:24:58.270Z,2.60
2022-08-03T08:27:24.831Z,2.55
2022-08-03T08:29:54.510Z,2.63
2022-08-03T08:32:23.137Z,2.30
2022-08-03T08:34:49.686Z,2.33
2022-08-03T08:37:16.460Z,2.83
2022-08-03T08:39:42.967Z,2.97
2022-08-03T08:42:10.263Z,2.63
2022-08-03T08:44:37.008Z,2.90
2022-08-03T08:47:04.598Z,2.20
2022-08-03T08:49:33.049Z,2.50
2022-08-03T08:52:03.193Z,2.33
2022-08-03T08:54:32.490Z,2.42
2022-08-03T08:57:03.060Z,2.42
2022-08-03T08:59:48.028Z,2.67
2022-08-03T09:04:42.789Z,2.92
2022-08-03T09:07:29.124Z,2.67
2022-08-03T09:10:05.968Z,2.97
2022-08-03T09:12:43.260Z,3.00
2022-08-03T09:15:17.553Z,2.20
2022-08-03T09:17:47.678Z,2.50
2022-08-03T09:20:18.197Z,2.33
2022-08-03T09:22:55.708Z,2.20
2022-08-03T09:25:32.683Z,2.55
2022-08-03T09:28:13.919Z,2.42
2022-08-03T09:31:00.636Z,2.40
2022-08-03T09:33:27.223Z,2.20
2022-08-03T09:36:02.890Z,2.53
2022-08-03T09:38:29.395Z,2.13
2022-08-03T09:41:00.488Z,2.40
2022-08-03T09:43:27.968Z,1.92
2022-08-03T09:46:03.643Z,2.42
2022-08-03T09:48:31.733Z,2.33
2022-08-03T09:51:13.424Z,2.13
2022-08-03T09:53:56.994Z,2.17
2022-08-03T09:56:39.034Z,2.83
2022-08-03T09:59:05.715Z,2.35
2022-08-03T10:01:35.968Z,1.98
2022-08-03T10:04:05.215Z,2.30
2022-08-03T10:06:32.086Z,2.22
2022-08-03T10:09:16.833Z,2.72
2022-08-03T10:11:44.581Z,2.05
2022-08-03T10:14:19.058Z,2.00
2022-08-03T10:16:47.110Z,2.30
2022-08-03T10:21:55.323Z,2.22
2022-08-03T10:24:27.144Z,2.53
2022-08-03T10:27:01.195Z,2.00
2022-08-03T10:29:29.648Z,2.22
2022-08-03T10:31:59.056Z,1.98
2022-08-03T10:34:34.435Z,2.40
2022-08-03T10:37:05.471Z,2.35
2022-08-03T10:39:32.063Z,1.98
2022-08-03T10:41:59.988Z,2.20
2022-08-03T10:44:33.783Z,1.80
2022-08-03T10:47:01.531Z,2.00
2022-08-03T10:49:34.770Z,2.10
2022-08-03T10:52:12.956Z,1.92
2022-08-03T10:55:03.300Z,1.90
2022-08-03T10:57:56.114Z,1.70
2022-08-03T11:00:30.098Z,2.78
2022-08-03T11:03:15.887Z,1.88
2022-08-03T11:05:47.345Z,2.00
2022-08-03T11:08:27.913Z,1.70
2022-08-03T11:11:17.472Z,1.60
2022-08-03T11:14:10.296Z,1.83
2022-08-03T11:16:42.425Z,1.85
2022-08-03T11:19:11.397Z,1.58
2022-08-03T11:21:50.024Z,1.90
2022-08-03T11:24:39.346Z,1.88
2022-08-03T11:27:18.563Z,2.05
2022-08-03T11:30:20.311Z,2.00
2022-08-03T11:32:57.766Z,1.80
2022-08-03T11:35:33.795Z,2.00
2022-08-03T11:38:03.262Z,1.60
2022-08-03T11:40:45.056Z,1.60
2022-08-03T11:43:35.429Z,1.67
2022-08-03T11:46:05.321Z,2.10
2022-08-03T11:48:37.513Z,1.55
2022-08-03T11:51:18.604Z,1.38
2022-08-03T11:53:47.784Z,1.65
2022-08-03T11:56:14.415Z,1.40
2022-08-03T11:59:00.900Z,1.63
2022-08-03T12:01:35.497Z,1.90
2022-08-03T12:04:06.160Z,1.60
2022-08-03T12:06:55.004Z,1.50
2022-08-03T12:09:22.305Z,1.85
2022-08-03T12:11:59.783Z,2.10
2022-08-03T12:14:49.993Z,1.75
2022-08-03T12:17:15.138Z,1.85
2022-08-03T12:19:43.290Z,1.70
2022-08-03T12:22:09.920Z,1.60
2022-08-03T12:24:47.661Z,1.50
2022-08-03T12:27:24.345Z,1.73
2022-08-03T12:29:58.359Z,2.08
2022-08-03T12:32:26.794Z,1.60
2022-08-03T12:34:53.521Z,1.67
2022-08-03T12:37:23.215Z,1.90
2022-08-03T12:40:02.214Z,1.90
2022-08-03T12:42:35.520Z,1.58
2022-08-03T12:45:28.587Z,1.60
2022-08-03T12:48:02.082Z,1.20
2022-08-03T12:52:59.364Z,1.38
2022-08-03T12:55:57.821Z,1.65
2022-08-03T12:58:35.312Z,1.40
2022-08-03T13:01:09.889Z,1.80
2022-08-03T13:03:50.232Z,1.90
2022-08-03T13:06:22.140Z,1.70
2022-08-03T13:08:50.006Z,2.00
2022-08-03T13:11:55.868Z,1.83
2022-08-03T13:14:13.549Z,1.85
2022-08-03T13:16:46.329Z,1.90
2022-08-03T13:19:15.693Z,1.80
2022-08-03T13:22:02.169Z,1.83
2022-08-03T13:24:30.581Z,2.30
2022-08-03T13:26:58.380Z,2.13
2022-08-03T13:29:24.886Z,2.08
2022-08-03T13:31:51.688Z,2.13
2022-08-03T13:34:23.232Z,2.22
2022-08-03T13:37:08.483Z,2.30
2022-08-03T13:39:58.471Z,2.38
2022-08-03T13:42:22.834Z,2.20
2022-08-03T13:44:49.373Z,2.20
2022-08-03T13:47:16.202Z,2.10
2022-08-03T13:49:42.917Z,2.22
2022-08-03T13:52:27.681Z,2.50
2022-08-03T13:54:54.225Z,2.40
2022-08-03T13:58:03.796Z,2.08
2022-08-03T14:00:09.209Z,2.33
2022-08-03T14:02:35.849Z,2.20
2022-08-03T14:05:02.485Z,2.45
2022-08-03T14:07:29.005Z,2.25
2022-08-03T14:09:55.445Z,2.42
2022-08-03T14:12:22.002Z,2.10
2022-08-03T14:14:48.498Z,2.22
2022-08-03T14:17:16.301Z,2.05
2022-08-03T14:19:53.523Z,2.50
2022-08-03T14:22:21.177Z,2.00
2022-08-03T14:24:49.359Z,1.98
2022-08-03T14:27:16.921Z,1.80
2022-08-03T14:32:13.218Z,2.13
2022-08-03T14:34:40.418Z,2.00
2022-08-03T14:37:07.175Z,2.20
2022-08-03T14:42:20.501Z,1.80
2022-08-03T14:44:47.585Z,2.33
2022-08-03T14:47:14.519Z,2.20
2022-08-03T14:50:32.572Z,1.80
2022-08-03T14:52:27.987Z,1.83
2022-08-03T14:54:54.484Z,2.17
2022-08-03T14:57:21.314Z,2.20
2022-08-03T14:59:55.790Z,2.30
2022-08-03T15:02:25.017Z,2.50
2022-08-03T15:04:52.663Z,2.30
2022-08-03T15:09:47.323Z,2.33
2022-08-03T15:12:14.028Z,1.92
2022-08-03T15:14:40.536Z,1.95
2022-08-03T15:17:07.608Z,1.60
2022-08-03T15:20:03.680Z,1.80
2022-08-03T15:22:24.935Z,1.80
2022-08-03T15:24:52.306Z,1.70
2022-08-03T15:27:19.233Z,1.80
2022-08-03T15:30:06.901Z,1.80
2022-08-03T15:32:34.106Z,1.83
2022-08-03T15:35:01.243Z,2.00
2022-08-03T15:37:28.081Z,1.70
2022-08-03T15:39:59.713Z,1.75
2022-08-03T15:42:29.304Z,1.70
2022-08-03T15:44:55.988Z,1.70
2022-08-03T15:47:22.693Z,1.90
2022-08-03T15:49:49.504Z,1.63
2022-08-03T15:52:16.035Z,1.60
2022-08-03T15:54:42.626Z,1.65
2022-08-03T15:57:09.136Z,1.50
2022-08-03T15:59:35.592Z,1.70
2022-08-03T16:02:02.671Z,1.67
2022-08-03T16:04:29.260Z,1.52
2022-08-03T16:06:55.916Z,1.60
2022-08-03T16:09:22.894Z,1.50
2022-08-03T16:12:13.280Z,1.40
2022-08-03T16:14:51.841Z,1.42
2022-08-03T16:17:19.510Z,1.60
2022-08-03T16:19:46.286Z,1.40
2022-08-03T16:22:14.394Z,1.38
2022-08-03T16:24:41.356Z,1.60
2022-08-03T16:27:25.048Z,1.50
2022-08-03T16:29:55.085Z,1.42
2022-08-03T16:32:21.645Z,1.50
2022-08-03T16:34:48.263Z,1.50
2022-08-03T16:37:37.766Z,1.40
2022-08-03T16:40:03.247Z,1.52
2022-08-03T16:42:29.918Z,1.58
2022-08-03T16:44:56.442Z,1.67
2022-08-03T16:47:23.161Z,1.65
2022-08-03T16:49:55.056Z,1.27
2022-08-03T16:52:23.245Z,1.60
2022-08-03T16:54:53.032Z,1.40
2022-08-03T16:57:55.660Z,1.50
2022-08-03T17:00:12.187Z,1.60
2022-08-03T17:03:00.889Z,1.80
2022-08-03T17:05:43.805Z,1.95
2022-08-03T17:08:14.647Z,1.35
2022-08-03T17:10:45.112Z,1.75
2022-08-03T17:13:22.101Z,1.80
2022-08-03T17:16:01.407Z,1.85
2022-08-03T17:18:34.959Z,1.52
2022-08-03T17:21:06.081Z,1.70
2022-08-03T17:23:49.831Z,2.70
2022-08-03T17:26:22.053Z,1.77
2022-08-03T17:28:56.479Z,1.42
2022-08-03T17:31:31.094Z,1.63
2022-08-03T17:34:00.791Z,1.70
2022-08-03T17:36:47.550Z,1.73
2022-08-03T17:39:16.762Z,1.48
2022-08-03T17:41:48.983Z,1.50
2022-08-03T17:44:31.171Z,1.73
2022-08-03T17:47:05.013Z,1.73
2022-08-03T17:49:40.067Z,1.50
2022-08-03T17:52:21.876Z,1.60
2022-08-03T17:55:55.443Z,1.52
2022-08-03T17:58:15.058Z,1.40
2022-08-03T18:01:04.732Z,1.50
2022-08-03T18:04:00.250Z,1.77
2022-08-03T18:06:31.158Z,1.73
2022-08-03T18:09:04.813Z,1.60
2022-08-03T18:11:51.250Z,1.73
2022-08-03T18:14:36.662Z,1.80
2022-08-03T18:20:03.428Z,1.70
2022-08-03T18:22:28.197Z,1.60
2022-08-03T18:24:59.087Z,1.45
2022-08-03T18:27:45.392Z,1.60
2022-08-03T18:30:17.090Z,1.60
2022-08-03T18:32:43.960Z,1.60
2022-08-03T18:35:28.264Z,1.70
2022-08-03T18:38:15.733Z,2.38
2022-08-03T18:40:48.704Z,1.58
2022-08-03T18:43:17.522Z,1.33
2022-08-03T18:45:57.108Z,2.30
2022-08-03T18:48:32.810Z,1.67
2022-08-03T18:51:06.932Z,2.00
2022-08-03T18:54:02.631Z,1.92
2022-08-03T18:56:49.125Z,1.88
2022-08-03T18:59:27.154Z,1.90
2022-08-03T19:02:05.323Z,1.60
2022-08-03T19:04:46.789Z,1.63
2022-08-03T19:07:35.951Z,1.33
2022-08-03T19:10:09.704Z,1.60
2022-08-03T19:12:49.353Z,1.67
2022-08-03T19:15:36.135Z,1.80
2022-08-03T19:18:08.797Z,1.52
2022-08-03T19:20:41.398Z,1.70
2022-08-03T19:23:14.276Z,1.90
2022-08-03T19:25:41.439Z,1.52
2022-08-03T19:28:09.021Z,1.70
2022-08-03T19:30:40.117Z,2.05
2022-08-03T19:33:14.903Z,1.73
2022-08-03T19:35:51.428Z,1.67
2022-08-03T19:41:14.926Z,2.05
2022-08-03T19:43:57.761Z,1.73
2022-08-03T19:46:31.195Z,2.00
2022-08-03T19:49:15.353Z,1.60
2022-08-03T19:52:00.905Z,1.73
2022-08-03T19:54:39.579Z,1.80
2022-08-03T19:57:25.432Z,1.80
2022-08-03T19:59:55.112Z,1.80
2022-08-03T20:02:26.313Z,1.90
2022-08-03T20:04:55.310Z,1.80
2022-08-03T20:07:23.644Z,1.80
2022-08-03T20:09:56.079Z,1.73
2022-08-03T20:12:27.502Z,2.03
2022-08-03T20:14:57.418Z,1.55
2022-08-03T20:17:54.119Z,1.65
2022-08-03T20:20:13.988Z,2.17
2022-08-03T20:22:45.575Z,1.80
2022-08-03T20:25:20.865Z,1.70
2022-08-03T20:28:07.082Z,1.80
2022-08-03T20:33:09.926Z,2.03
2022-08-03T20:35:36.397Z,1.95
2022-08-03T20:38:03.316Z,1.90
2022-08-03T20:40:29.898Z,2.28
2022-08-03T20:42:59.846Z,2.45
2022-08-03T20:45:59.040Z,2.47
2022-08-03T20:48:15.999Z,2.17
2022-08-03T20:50:43.830Z,1.83
2022-08-03T20:53:12.691Z,1.85
2022-08-03T20:55:48.028Z,2.13
2022-08-03T20:58:27.202Z,2.03
2022-08-03T21:00:56.753Z,2.80
2022-08-03T21:03:23.258Z,1.90
2022-08-03T21:08:46.886Z,2.03
2022-08-03T21:11:17.908Z,2.17
2022-08-03T21:13:02.596Z,1.90
2022-08-03T21:13:08.029Z,2.03
2022-08-03T21:13:52.094Z,2.17
2022-08-03T21:16:21.654Z,2.10
2022-08-03T21:18:52.780Z,2.00
2022-08-03T21:21:22.450Z,2.22
2022-08-03T21:23:52.556Z,2.10
2022-08-03T21:26:21.647Z,2.35
2022-08-03T21:28:49.784Z,2.33
2022-08-03T21:31:22.358Z,1.92
2022-08-03T21:33:56.991Z,2.10
2022-08-03T21:36:25.953Z,2.08
2022-08-03T21:38:56.160Z,2.17
2022-08-03T21:41:24.331Z,2.10
2022-08-03T21:43:50.808Z,2.22
2022-08-03T21:46:19.536Z,2.50
2022-08-03T21:48:53.390Z,2.00
2022-08-03T21:54:02.839Z,2.60
2022-08-03T21:56:41.504Z,2.42
2022-08-03T21:59:15.755Z,2.58
2022-08-03T22:01:43.094Z,2.53
2022-08-03T22:04:11.984Z,2.80
2022-08-03T22:06:57.785Z,2.67
2022-08-03T22:09:24.426Z,2.85
2022-08-03T22:11:54.116Z,2.78
2022-08-03T22:14:21.628Z,2.38
2022-08-03T22:16:49.173Z,2.83
2022-08-03T22:19:15.770Z,2.92
2022-08-03T22:21:45.879Z,2.67
2022-08-03T22:24:15.551Z,3.30
2022-08-03T22:27:03.475Z,3.08
2022-08-03T22:29:32.774Z,3.15
2022-08-03T22:31:59.652Z,3.45
2022-08-03T22:34:27.193Z,3.33
2022-08-03T22:37:00.781Z,3.20
2022-08-03T22:39:28.826Z,3.65
2022-08-03T22:41:58.821Z,4.40
2022-08-03T22:44:26.911Z,4.07
2022-08-03T22:46:53.429Z,3.95
2022-08-03T22:49:20.679Z,3.75
2022-08-03T22:51:47.633Z,3.90
2022-08-03T22:54:14.761Z,4.05
2022-08-03T22:56:41.890Z,3.63
2022-08-03T22:59:40.808Z,3.63
2022-08-03T23:02:15.045Z,3.38
2022-08-03T23:04:51.141Z,3.00
2022-08-03T23:07:22.388Z,3.38
2022-08-03T23:09:49.534Z,3.40
2022-08-03T23:12:20.125Z,2.60
2022-08-03T23:14:54.306Z,2.90
2022-08-03T23:17:23.859Z,2.80
2022-08-03T23:19:52.737Z,2.58
2022-08-03T23:22:29.976Z,2.95
2022-08-03T23:24:58.803Z,3.10
2022-08-03T23:27:27.012Z,2.90
2022-08-03T23:29:54.062Z,2.95
2022-08-03T23:32:21.074Z,2.80
2022-08-03T23:35:07.308Z,2.92
2022-08-03T23:38:04.518Z,3.03
2022-08-03T23:40:29.524Z,3.80
2022-08-03T23:42:57.052Z,3.58
2022-08-03T23:45:25.805Z,4.35
2022-08-03T23:47:52.289Z,4.25
2022-08-03T23:50:19.090Z,4.15
2022-08-03T23:53:12.051Z,3.63
2022-08-03T23:55:47.686Z,3.35
2022-08-03T23:58:47.808Z,3.15
